Time;durP1;ratioP1;P1;durP2;ratioP2;P2;SDS_P1;SDS_P2;PMS_P1;PMS_P2;Temp;Humidity;BMP_temperature;BMP_pressure;BME280_temperature;BME280_humidity;BME280_pressure;Samples;Min_cycle;Max_cycle;Signal;HPM_P1;HPM_P2
2023/04/11 00:00:57;;;;;;;;;2.67;1.67;;;;;-147.17;100.00;-15917.19;4986219;28;51194;-60
2023/04/11 00:03:22;;;;;;;;;1.33;1.00;;;;;-147.17;100.00;-15917.19;4989865;28;50907;-61
2023/04/11 00:05:48;;;;;;;;;2.00;1.67;;;;;-147.17;100.00;-15917.19;4990716;28;50856;-61
2023/04/11 00:08:13;;;;;;;;;2.25;1.00;;;;;-147.17;100.00;-15917.19;4989219;28;51053;-60
2023/04/11 00:10:39;;;;;;;;;1.33;1.33;;;;;-147.17;100.00;-15917.19;4992362;28;51265;-60
2023/04/11 00:13:06;;;;;;;;;0.00;0.00;;;;;-147.17;100.00;-15917.19;4982789;28;51165;-60
2023/04/11 00:15:31;;;;;;;;;1.00;1.00;;;;;-147.17;100.00;-15917.19;4987033;28;53202;-60
2023/04/11 00:17:57;;;;;;;;;1.00;0.00;;;;;-147.17;100.00;-15917.19;4986598;28;51256;-60
2023/04/11 00:20:22;;;;;;;;;2.33;0.00;;;;;-147.17;100.00;-15917.19;4984986;28;51205;-59
2023/04/11 00:22:48;;;;;;;;;1.33;1.00;;;;;-147.17;100.00;-15917.19;4991360;28;51227;-60
2023/04/11 00:25:14;;;;;;;;;1.00;0.33;;;;;-147.17;100.00;-15917.19;4987923;28;51947;-60
2023/04/11 00:27:39;;;;;;;;;1.00;1.00;;;;;-147.17;100.00;-15917.19;4989715;28;51096;-61
2023/04/11 00:30:06;;;;;;;;;2.00;1.00;;;;;-147.17;100.00;-15917.19;4985303;28;51298;-61
2023/04/11 00:32:32;;;;;;;;;1.25;1.00;;;;;-147.17;100.00;-15917.19;4972528;28;51125;-61
2023/04/11 00:34:58;;;;;;;;;1.33;1.00;;;;;-147.17;100.00;-15917.19;4989385;28;51376;-61
2023/04/11 00:37:23;;;;;;;;;1.00;1.00;;;;;-147.17;100.00;-15917.19;4990611;28;50939;-60
2023/04/11 00:39:49;;;;;;;;;2.33;1.00;;;;;-147.17;100.00;-15917.19;4992554;28;50971;-61
2023/04/11 00:42:15;;;;;;;;;1.00;0.00;;;;;-147.17;100.00;-15917.19;4993265;28;51379;-60
2023/04/11 00:44:41;;;;;;;;;0.67;0.00;;;;;-147.17;100.00;-15917.19;4992598;28;51221;-61
2023/04/11 00:47:08;;;;;;;;;3.00;1.00;;;;;-147.17;100.00;-15917.19;4981097;28;51161;-61
2023/04/11 00:49:35;;;;;;;;;3.50;3.00;;;;;-147.17;100.00;-15917.19;4988985;28;51581;-60
2023/04/11 00:52:01;;;;;;;;;2.00;1.00;;;;;-147.17;100.00;-15917.19;4993126;28;51327;-61
2023/04/11 00:54:29;;;;;;;;;1.00;1.00;;;;;-147.17;100.00;-15917.19;4994356;28;51860;-60
2023/04/11 00:56:58;;;;;;;;;3.00;2.00;;;;;-147.17;100.00;-15917.19;4991250;28;50983;-60
2023/04/11 00:59:26;;;;;;;;;0.33;0.00;;;;;-147.17;100.00;-15917.19;4992119;28;50984;-61
2023/04/11 01:01:51;;;;;;;;;1.00;0.00;;;;;-147.17;100.00;-15917.19;4993082;28;51268;-60
2023/04/11 01:04:16;;;;;;;;;0.75;0.75;;;;;-147.17;100.00;-15917.19;4989645;28;52071;-60
2023/04/11 01:06:46;;;;;;;;;0.00;0.00;;;;;-147.17;100.00;-15917.19;4984973;28;51165;-60
2023/04/11 01:09:11;;;;;;;;;1.25;1.00;;;;;-147.17;100.00;-15917.19;4992732;28;50956;-60
2023/04/11 01:11:37;;;;;;;;;1.67;0.00;;;;;-147.17;100.00;-15917.19;4999177;28;51352;-59
2023/04/11 01:14:04;;;;;;;;;3.00;0.67;;;;;-147.17;100.00;-15917.19;4995863;28;51132;-61
2023/04/11 01:16:29;;;;;;;;;1.00;0.00;;;;;-147.17;100.00;-15917.19;4991109;28;51010;-59
2023/04/11 01:18:55;;;;;;;;;0.33;0.00;;;;;-147.17;100.00;-15917.19;4981053;28;51276;-59
2023/04/11 01:21:21;;;;;;;;;1.00;1.00;;;;;-147.17;100.00;-15917.19;4990182;28;51107;-60
2023/04/11 01:23:51;;;;;;;;;1.00;1.00;;;;;-147.17;100.00;-15917.19;4992380;28;51824;-60
2023/04/11 01:26:17;;;;;;;;;1.00;1.00;;;;;-147.17;100.00;-15917.19;4986781;28;51103;-59
2023/04/11 01:28:42;;;;;;;;;4.50;1.00;;;;;-147.17;100.00;-15917.19;4992409;28;51083;-60
2023/04/11 01:31:07;;;;;;;;;1.00;0.00;;;;;-147.17;100.00;-15917.19;4986127;28;51368;-60
2023/04/11 01:33:33;;;;;;;;;1.67;1.00;;;;;-147.17;100.00;-15917.19;4988827;28;51258;-59
2023/04/11 01:35:58;;;;;;;;;1.67;1.00;;;;;-147.17;100.00;-15917.19;4982953;28;51084;-60
2023/04/11 01:38:23;;;;;;;;;0.00;0.00;;;;;-147.17;100.00;-15917.19;4995619;28;51204;-59
2023/04/11 01:40:50;;;;;;;;;0.00;0.00;;;;;-147.17;100.00;-15917.19;4996064;28;51368;-59
2023/04/11 01:43:16;;;;;;;;;1.00;1.00;;;;;-147.17;100.00;-15917.19;4994147;28;51921;-62
2023/04/11 01:45:41;;;;;;;;;1.67;0.00;;;;;-147.17;100.00;-15917.19;4994949;28;51228;-60
2023/04/11 01:48:07;;;;;;;;;1.67;0.33;;;;;-147.17;100.00;-15917.19;4992777;28;51183;-59
2023/04/11 01:50:33;;;;;;;;;1.00;1.00;;;;;-147.17;100.00;-15917.19;4994356;28;51395;-62
2023/04/11 01:52:58;;;;;;;;;0.33;0.33;;;;;-147.17;100.00;-15917.19;4983219;28;51931;-60
2023/04/11 01:55:23;;;;;;;;;0.00;0.00;;;;;-147.17;100.00;-15917.19;4994191;28;51103;-59
2023/04/11 01:57:49;;;;;;;;;0.00;0.00;;;;;-147.17;100.00;-15917.19;4988491;28;51647;-59
2023/04/11 02:00:15;;;;;;;;;2.00;1.00;;;;;-147.17;100.00;-15917.19;4991371;28;51072;-59
2023/04/11 02:02:40;;;;;;;;;0.00;0.00;;;;;-147.17;100.00;-15917.19;4984881;28;51279;-59
2023/04/11 02:05:06;;;;;;;;;0.67;0.67;;;;;-147.17;100.00;-15917.19;4994325;28;51061;-59
2023/04/11 02:07:32;;;;;;;;;1.00;1.00;;;;;-147.17;100.00;-15917.19;4993203;28;50926;-59
2023/04/11 02:09:57;;;;;;;;;1.67;1.00;;;;;-147.17;100.00;-15917.19;4993366;28;51393;-60
2023/04/11 02:12:23;;;;;;;;;1.67;0.67;;;;;-147.17;100.00;-15917.19;4992651;28;51296;-60
2023/04/11 02:14:48;;;;;;;;;1.00;1.00;;;;;-147.17;100.00;-15917.19;4994746;28;51024;-61
2023/04/11 02:17:17;;;;;;;;;1.33;1.33;;;;;-147.17;100.00;-15917.19;4996254;28;51348;-58
2023/04/11 02:19:44;;;;;;;;;0.00;0.00;;;;;-147.17;100.00;-15917.19;5000611;28;51097;-60
2023/04/11 02:22:18;;;;;;;;;0.00;0.00;;;;;-147.17;100.00;-15917.19;4993645;28;52464;-60
2023/04/11 02:24:45;;;;;;;;;1.00;1.00;;;;;-147.17;100.00;-15917.19;4989155;28;53275;-59
2023/04/11 02:27:10;;;;;;;;;0.00;0.00;;;;;-147.17;100.00;-15917.19;4983532;28;50998;-59
2023/04/11 02:29:36;;;;;;;;;0.67;0.00;;;;;-147.17;100.00;-15917.19;4994979;28;51379;-59
2023/04/11 02:32:01;;;;;;;;;3.00;1.67;;;;;-147.17;100.00;-15917.19;4985395;28;52290;-59
2023/04/11 02:34:27;;;;;;;;;0.67;0.67;;;;;-147.17;100.00;-15917.19;4993037;28;50928;-59
2023/04/11 02:36:52;;;;;;;;;0.33;0.33;;;;;-147.17;100.00;-15917.19;5007786;28;51341;-59
2023/04/11 02:39:22;;;;;;;;;1.00;0.67;;;;;-147.17;100.00;-15917.19;5014355;28;51128;-58
2023/04/11 02:41:47;;;;;;;;;1.00;1.00;;;;;-147.17;100.00;-15917.19;5001341;28;51248;-59
2023/04/11 02:44:13;;;;;;;;;2.00;1.00;;;;;-147.17;100.00;-15917.19;4993496;28;51042;-59
2023/04/11 02:46:38;;;;;;;;;1.75;0.50;;;;;-147.17;100.00;-15917.19;4993850;28;51287;-59
2023/04/11 02:49:03;;;;;;;;;1.00;0.75;;;;;-147.17;100.00;-15917.19;4993712;28;51053;-59
2023/04/11 02:51:29;;;;;;;;;2.25;1.00;;;;;-147.17;100.00;-15917.19;4993010;28;58434;-59
2023/04/11 02:53:55;;;;;;;;;1.25;1.00;;;;;-147.17;100.00;-15917.19;4990475;28;50928;-59
2023/04/11 02:56:20;;;;;;;;;2.00;0.25;;;;;-147.17;100.00;-15917.19;4996312;28;51000;-59
2023/04/11 02:58:46;;;;;;;;;1.00;0.50;;;;;-147.17;100.00;-15917.19;4993382;28;51093;-61
2023/04/11 03:01:13;;;;;;;;;1.75;1.00;;;;;-147.17;100.00;-15917.19;4992793;28;51890;-60
2023/04/11 03:03:39;;;;;;;;;2.25;2.00;;;;;-147.17;100.00;-15917.19;4992297;28;51181;-60
2023/04/11 03:06:07;;;;;;;;;1.75;1.25;;;;;-147.17;100.00;-15917.19;4992530;28;51109;-59
2023/04/11 03:08:34;;;;;;;;;2.00;0.00;;;;;-147.17;100.00;-15917.19;4993026;28;51519;-60
2023/04/11 03:11:00;;;;;;;;;1.75;0.00;;;;;-147.17;100.00;-15917.19;4992657;28;52257;-59
2023/04/11 03:13:26;;;;;;;;;0.50;0.50;;;;;-147.17;100.00;-15917.19;4975650;28;51050;-60
2023/04/11 03:15:51;;;;;;;;;2.00;1.00;;;;;-147.17;100.00;-15917.19;4993255;28;51335;-59
2023/04/11 03:18:17;;;;;;;;;1.75;1.75;;;;;-147.17;100.00;-15917.19;4992938;28;51167;-60
2023/04/11 03:20:43;;;;;;;;;1.50;0.75;;;;;-147.17;100.00;-15917.19;4993950;28;51535;-60
2023/04/11 03:23:08;;;;;;;;;1.75;1.00;;;;;-147.17;100.00;-15917.19;4992566;28;51397;-60
2023/04/11 03:25:33;;;;;;;;;1.00;1.00;;;;;-147.17;100.00;-15917.19;4993438;28;51100;-60
2023/04/11 03:27:59;;;;;;;;;1.25;1.00;;;;;-147.17;100.00;-15917.19;4993697;28;51121;-60
2023/04/11 03:30:24;;;;;;;;;1.75;0.00;;;;;-147.17;100.00;-15917.19;4982989;28;51838;-59
2023/04/11 03:32:49;;;;;;;;;1.00;0.50;;;;;-147.17;100.00;-15917.19;4988276;28;51199;-60
2023/04/11 03:35:15;;;;;;;;;1.75;1.00;;;;;-147.17;100.00;-15917.19;4993442;28;51152;-59
2023/04/11 03:37:41;;;;;;;;;3.00;1.00;;;;;-147.17;100.00;-15917.19;4993317;28;51212;-60
2023/04/11 03:40:07;;;;;;;;;2.00;2.00;;;;;-147.17;100.00;-15917.19;4994133;28;51053;-60
2023/04/11 03:42:34;;;;;;;;;2.00;1.00;;;;;-147.17;100.00;-15917.19;4991514;28;50919;-60
2023/04/11 03:44:59;;;;;;;;;1.00;0.00;;;;;-147.17;100.00;-15917.19;4992605;28;51345;-60
2023/04/11 03:47:24;;;;;;;;;1.25;1.00;;;;;-147.17;100.00;-15917.19;4993053;28;51339;-60
2023/04/11 03:49:50;;;;;;;;;0.75;0.00;;;;;-147.17;100.00;-15917.19;4992495;28;51076;-60
2023/04/11 03:52:16;;;;;;;;;1.75;1.00;;;;;-147.17;100.00;-15917.19;4992731;28;51027;-60
2023/04/11 03:54:41;;;;;;;;;0.00;0.00;;;;;-147.17;100.00;-15917.19;4995757;28;51080;-58
2023/04/11 03:57:07;;;;;;;;;1.25;0.75;;;;;-147.17;100.00;-15917.19;4991903;28;51069;-60
2023/04/11 03:59:33;;;;;;;;;0.75;0.25;;;;;-147.17;100.00;-15917.19;4988205;28;51246;-60
2023/04/11 04:01:58;;;;;;;;;1.25;1.00;;;;;-147.17;100.00;-15917.19;4985835;28;51802;-60
2023/04/11 04:04:23;;;;;;;;;2.00;1.50;;;;;-147.17;100.00;-15917.19;4991132;28;51523;-60
2023/04/11 04:06:49;;;;;;;;;1.50;0.00;;;;;-147.17;100.00;-15917.19;4993277;28;51117;-60
2023/04/11 04:09:14;;;;;;;;;0.25;0.25;;;;;-147.17;100.00;-15917.19;4990887;28;51481;-60
2023/04/11 04:11:39;;;;;;;;;0.75;0.25;;;;;-147.17;100.00;-15917.19;4979512;28;51147;-60
2023/04/11 04:14:05;;;;;;;;;2.00;1.00;;;;;-147.17;100.00;-15917.19;4987878;28;51225;-60
2023/04/11 04:16:30;;;;;;;;;2.00;2.00;;;;;-147.17;100.00;-15917.19;5013393;28;51155;-61
2023/04/11 04:18:55;;;;;;;;;1.00;1.00;;;;;-147.17;100.00;-15917.19;5004203;28;51207;-60
2023/04/11 04:21:21;;;;;;;;;1.50;1.00;;;;;-147.17;100.00;-15917.19;4976583;28;51076;-60
2023/04/11 04:23:46;;;;;;;;;1.00;0.50;;;;;-147.17;100.00;-15917.19;4984823;28;51129;-60
2023/04/11 04:26:14;;;;;;;;;0.00;0.00;;;;;-147.17;100.00;-15917.19;4992806;28;51017;-60
2023/04/11 04:28:44;;;;;;;;;1.75;1.50;;;;;-147.17;100.00;-15917.19;4991596;28;51359;-60
2023/04/11 04:31:11;;;;;;;;;2.25;2.00;;;;;-147.17;100.00;-15917.19;4985334;28;51279;-60
2023/04/11 04:33:36;;;;;;;;;1.50;1.25;;;;;-147.17;100.00;-15917.19;4991148;28;51052;-60
2023/04/11 04:36:03;;;;;;;;;3.00;1.25;;;;;-147.17;100.00;-15917.19;4992554;28;51301;-60
2023/04/11 04:38:29;;;;;;;;;3.25;1.00;;;;;-147.17;100.00;-15917.19;4955075;28;53526;-60
2023/04/11 04:40:55;;;;;;;;;0.75;0.50;;;;;-147.17;100.00;-15917.19;4986256;28;51112;-60
2023/04/11 04:43:22;;;;;;;;;2.50;1.25;;;;;-147.17;100.00;-15917.19;4984516;28;50884;-60
2023/04/11 04:45:48;;;;;;;;;1.00;1.00;;;;;-147.17;100.00;-15917.19;4989996;28;51021;-60
2023/04/11 04:48:13;;;;;;;;;2.00;1.00;;;;;-147.17;100.00;-15917.19;4983780;28;51742;-62
2023/04/11 04:50:42;;;;;;;;;2.00;1.00;;;;;-147.17;100.00;-15917.19;4981653;28;52988;-60
2023/04/11 04:53:08;;;;;;;;;1.00;1.00;;;;;-147.17;100.00;-15917.19;4990587;28;51206;-60
2023/04/11 04:55:34;;;;;;;;;0.00;0.00;;;;;-147.17;100.00;-15917.19;4990841;28;51013;-60
2023/04/11 04:57:59;;;;;;;;;2.75;1.50;;;;;-147.17;100.00;-15917.19;4989110;28;51858;-60
2023/04/11 05:00:25;;;;;;;;;1.50;1.00;;;;;-147.17;100.00;-15917.19;4989318;28;51121;-60
2023/04/11 05:02:53;;;;;;;;;3.00;2.50;;;;;-147.17;100.00;-15917.19;4981571;28;51207;-60
2023/04/11 05:05:19;;;;;;;;;1.75;1.25;;;;;-147.17;100.00;-15917.19;4983127;28;51319;-59
2023/04/11 05:07:44;;;;;;;;;1.00;1.00;;;;;-147.17;100.00;-15917.19;4986674;28;51140;-60
2023/04/11 05:10:09;;;;;;;;;2.50;1.75;;;;;-147.17;100.00;-15917.19;4992199;28;51234;-59
2023/04/11 05:12:38;;;;;;;;;12.50;9.50;;;;;-147.17;100.00;-15917.19;4988523;28;51091;-61
2023/04/11 05:15:04;;;;;;;;;2.25;1.25;;;;;-147.17;100.00;-15917.19;4980644;28;51132;-60
2023/04/11 05:17:29;;;;;;;;;2.00;1.00;;;;;-147.17;100.00;-15917.19;4983485;28;52307;-60
2023/04/11 05:19:55;;;;;;;;;1.00;1.00;;;;;-147.17;100.00;-15917.19;5010948;28;50995;-59
2023/04/11 05:22:20;;;;;;;;;3.25;1.75;;;;;-147.17;100.00;-15917.19;5000659;28;50989;-60
2023/04/11 05:24:46;;;;;;;;;1.75;1.75;;;;;-147.17;100.00;-15917.19;4991303;28;51180;-59
2023/04/11 05:27:12;;;;;;;;;3.00;3.00;;;;;-147.17;100.00;-15917.19;4992212;28;51034;-59
2023/04/11 05:29:37;;;;;;;;;1.75;1.00;;;;;-147.17;100.00;-15917.19;4991707;28;50974;-60
2023/04/11 05:32:03;;;;;;;;;3.00;1.75;;;;;-147.17;100.00;-15917.19;4993130;28;51040;-60
2023/04/11 05:34:31;;;;;;;;;9.50;8.50;;;;;-147.17;100.00;-15917.19;5002161;28;51342;-59
2023/04/11 05:36:56;;;;;;;;;2.50;1.50;;;;;-147.17;100.00;-15917.19;5011764;28;53182;-58
2023/04/11 05:39:21;;;;;;;;;2.00;1.50;;;;;-147.17;100.00;-15917.19;5012426;28;51120;-59
2023/04/11 05:41:46;;;;;;;;;1.25;1.25;;;;;-147.17;100.00;-15917.19;5012699;28;51130;-58
2023/04/11 05:44:12;;;;;;;;;1.75;1.00;;;;;-147.17;100.00;-15917.19;5012782;28;51451;-58
2023/04/11 05:46:37;;;;;;;;;3.00;3.00;;;;;-147.17;100.00;-15917.19;5012206;28;51919;-57
2023/04/11 05:49:02;;;;;;;;;1.75;1.00;;;;;-147.17;100.00;-15917.19;5012203;28;50990;-59
2023/04/11 05:51:28;;;;;;;;;5.75;4.00;;;;;-147.17;100.00;-15917.19;5012059;28;51086;-58
2023/04/11 05:53:53;;;;;;;;;3.00;2.75;;;;;-147.17;100.00;-15917.19;5012402;28;50965;-59
2023/04/11 05:56:19;;;;;;;;;2.50;2.00;;;;;-147.17;100.00;-15917.19;4994698;28;51075;-59
2023/04/11 05:58:44;;;;;;;;;2.00;1.25;;;;;-147.17;100.00;-15917.19;4992011;28;51044;-59
2023/04/11 06:01:19;;;;;;;;;1.50;1.50;;;;;-147.17;100.00;-15917.19;4991885;28;51204;-59
2023/04/11 06:03:45;;;;;;;;;2.75;2.00;;;;;-147.17;100.00;-15917.19;4988137;28;51063;-59
2023/04/11 06:06:11;;;;;;;;;2.00;2.00;;;;;-147.17;100.00;-15917.19;4990587;28;51114;-59
2023/04/11 06:08:36;;;;;;;;;4.50;3.00;;;;;-147.17;100.00;-15917.19;5001562;28;51012;-59
2023/04/11 06:11:02;;;;;;;;;3.00;2.50;;;;;-147.17;100.00;-15917.19;4995521;28;51171;-59
2023/04/11 06:13:27;;;;;;;;;1.25;1.00;;;;;-147.17;100.00;-15917.19;4990158;28;51982;-58
2023/04/11 06:15:53;;;;;;;;;4.00;3.00;;;;;-147.17;100.00;-15917.19;5011223;28;51035;-58
2023/04/11 06:18:18;;;;;;;;;2.00;2.00;;;;;-147.17;100.00;-15917.19;4997316;28;51136;-59
2023/04/11 06:20:45;;;;;;;;;2.00;1.00;;;;;-147.17;100.00;-15917.19;4994127;28;51486;-59
2023/04/11 06:23:10;;;;;;;;;2.00;1.00;;;;;-147.17;100.00;-15917.19;4994694;28;51418;-59
2023/04/11 06:25:35;;;;;;;;;2.75;2.50;;;;;-147.17;100.00;-15917.19;5000582;28;51272;-59
2023/04/11 06:28:01;;;;;;;;;0.00;0.00;;;;;-147.17;100.00;-15917.19;5012039;28;51148;-59
2023/04/11 06:30:26;;;;;;;;;2.75;1.75;;;;;-147.17;100.00;-15917.19;4994288;28;51197;-59
2023/04/11 06:32:52;;;;;;;;;2.00;1.25;;;;;-147.17;100.00;-15917.19;4995074;28;51000;-58
2023/04/11 06:35:19;;;;;;;;;2.50;1.50;;;;;-147.17;100.00;-15917.19;4994360;28;51938;-59
2023/04/11 06:37:45;;;;;;;;;2.00;2.00;;;;;-147.17;100.00;-15917.19;4994396;28;51044;-60
2023/04/11 06:40:11;;;;;;;;;15.75;15.50;;;;;-147.17;100.00;-15917.19;4994003;28;51111;-58
2023/04/11 06:42:36;;;;;;;;;4.25;3.00;;;;;-147.17;100.00;-15917.19;4994758;28;51377;-59
2023/04/11 06:45:02;;;;;;;;;5.00;4.25;;;;;-147.17;100.00;-15917.19;4994118;28;51261;-59
2023/04/11 06:47:28;;;;;;;;;2.00;1.25;;;;;-147.17;100.00;-15917.19;4994374;28;51170;-59
2023/04/11 06:49:54;;;;;;;;;1.50;1.00;;;;;-147.17;100.00;-15917.19;4993926;28;54639;-59
2023/04/11 06:52:19;;;;;;;;;4.00;3.00;;;;;-147.17;100.00;-15917.19;4994790;28;50938;-59
2023/04/11 06:54:46;;;;;;;;;3.75;3.00;;;;;-147.17;100.00;-15917.19;4995455;28;51008;-59
2023/04/11 06:57:12;;;;;;;;;2.67;1.67;;;;;-147.17;100.00;-15917.19;4994520;28;51042;-59
2023/04/11 06:59:38;;;;;;;;;1.67;1.67;;;;;-147.17;100.00;-15917.19;4994370;28;51054;-58
2023/04/11 07:02:03;;;;;;;;;12.00;11.00;;;;;-147.17;100.00;-15917.19;4994713;28;50880;-58
2023/04/11 07:04:29;;;;;;;;;4.00;3.00;;;;;-147.17;100.00;-15917.19;4993991;28;51258;-59
2023/04/11 07:06:54;;;;;;;;;3.00;3.00;;;;;-147.17;100.00;-15917.19;4994403;28;51112;-58
2023/04/11 07:09:19;;;;;;;;;4.75;3.00;;;;;-147.17;100.00;-15917.19;4994627;28;51286;-58
2023/04/11 07:11:45;;;;;;;;;2.00;2.00;;;;;-147.17;100.00;-15917.19;5008371;28;50943;-58
2023/04/11 07:14:10;;;;;;;;;4.00;2.67;;;;;-147.17;100.00;-15917.19;5015118;28;50965;-58
2023/04/11 07:16:35;;;;;;;;;6.67;4.33;;;;;-147.17;100.00;-15917.19;5015248;28;50878;-60
2023/04/11 07:19:02;;;;;;;;;3.33;2.67;;;;;-147.17;100.00;-15917.19;5014420;28;51270;-58
2023/04/11 07:21:27;;;;;;;;;1.00;1.00;;;;;-147.17;100.00;-15917.19;5014400;28;50890;-60
2023/04/11 07:23:53;;;;;;;;;5.00;5.00;;;;;-147.17;100.00;-15917.19;5013743;28;52060;-57
2023/04/11 07:26:18;;;;;;;;;6.00;5.50;;;;;-147.17;100.00;-15917.19;5014167;28;51171;-59
2023/04/11 07:28:44;;;;;;;;;4.00;3.00;;;;;-147.17;100.00;-15917.19;5013731;28;51120;-59
2023/04/11 07:31:11;;;;;;;;;2.00;2.00;;;;;-147.17;100.00;-15917.19;5013042;28;51124;-59
2023/04/11 07:33:37;;;;;;;;;4.00;2.00;;;;;-147.17;100.00;-15917.19;5013550;28;51790;-58
2023/04/11 07:36:05;;;;;;;;;3.00;3.00;;;;;-147.17;100.00;-15917.19;5013576;28;51096;-59
2023/04/11 07:38:32;;;;;;;;;3.00;2.33;;;;;-147.17;100.00;-15917.19;5013872;28;50965;-58
2023/04/11 07:41:00;;;;;;;;;2.33;1.67;;;;;-147.17;100.00;-15917.19;5013679;28;50895;-59
2023/04/11 07:43:27;;;;;;;;;6.00;4.25;;;;;-147.17;100.00;-15917.19;5013021;28;52905;-59
2023/04/11 07:45:53;;;;;;;;;3.00;3.00;;;;;-147.17;100.00;-15917.19;5013557;28;51083;-59
2023/04/11 07:48:23;;;;;;;;;4.00;2.00;;;;;-147.17;100.00;-15917.19;5013081;28;51313;-59
2023/04/11 07:50:48;;;;;;;;;3.00;3.00;;;;;-147.17;100.00;-15917.19;5013238;28;51471;-60
2023/04/11 07:53:14;;;;;;;;;2.33;2.33;;;;;-147.17;100.00;-15917.19;5013257;28;52299;-59
2023/04/11 07:55:40;;;;;;;;;3.00;3.00;;;;;-147.17;100.00;-15917.19;4998995;28;51014;-61
2023/04/11 07:58:05;;;;;;;;;3.00;2.00;;;;;-147.17;100.00;-15917.19;4992505;28;51137;-59
2023/04/11 08:00:32;;;;;;;;;3.33;2.00;;;;;-147.17;100.00;-15917.19;4993646;28;51227;-60
2023/04/11 08:03:01;;;;;;;;;2.00;1.00;;;;;-147.17;100.00;-15917.19;4992889;28;51332;-59
2023/04/11 08:05:28;;;;;;;;;5.33;5.00;;;;;-147.17;100.00;-15917.19;4993381;28;50992;-58
2023/04/11 08:07:55;;;;;;;;;3.00;3.00;;;;;-147.17;100.00;-15917.19;4992800;28;51132;-59
2023/04/11 08:10:20;;;;;;;;;3.33;3.00;;;;;-147.17;100.00;-15917.19;5007413;28;51335;-59
2023/04/11 08:12:46;;;;;;;;;3.67;3.00;;;;;-147.17;100.00;-15917.19;5012917;28;51781;-59
2023/04/11 08:15:11;;;;;;;;;4.00;3.00;;;;;-147.17;100.00;-15917.19;4999666;28;50958;-59
2023/04/11 08:17:37;;;;;;;;;3.33;2.33;;;;;-147.17;100.00;-15917.19;4993203;28;51161;-59
2023/04/11 08:20:04;;;;;;;;;5.00;3.00;;;;;-147.17;100.00;-15917.19;4993155;28;51281;-59
2023/04/11 08:22:31;;;;;;;;;1.00;1.00;;;;;-147.17;100.00;-15917.19;4989432;28;52342;-59
2023/04/11 08:24:57;;;;;;;;;5.33;3.67;;;;;-147.17;100.00;-15917.19;4992745;28;51285;-59
2023/04/11 08:27:22;;;;;;;;;2.33;2.33;;;;;-147.17;100.00;-15917.19;4991603;28;51158;-59
2023/04/11 08:29:48;;;;;;;;;3.00;2.00;;;;;-147.17;100.00;-15917.19;4993181;28;51066;-59
2023/04/11 08:32:13;;;;;;;;;2.00;2.00;;;;;-147.17;100.00;-15917.19;4992898;28;50994;-60
2023/04/11 08:34:38;;;;;;;;;5.67;5.00;;;;;-147.17;100.00;-15917.19;4992638;28;51041;-59
2023/04/11 08:37:03;;;;;;;;;2.00;2.00;;;;;-147.17;100.00;-15917.19;4992936;28;51205;-60
2023/04/11 08:39:29;;;;;;;;;6.00;5.00;;;;;-147.17;100.00;-15917.19;4992839;28;51294;-59
2023/04/11 08:41:54;;;;;;;;;4.00;3.00;;;;;-147.17;100.00;-15917.19;4992294;28;51324;-60
2023/04/11 08:44:20;;;;;;;;;5.00;4.00;;;;;-147.17;100.00;-15917.19;4992933;28;51094;-59
2023/04/11 08:46:46;;;;;;;;;3.67;3.00;;;;;-147.17;100.00;-15917.19;4993053;28;51003;-59
2023/04/11 08:49:11;;;;;;;;;4.00;3.00;;;;;-147.17;100.00;-15917.19;4992674;28;51216;-60
2023/04/11 08:51:40;;;;;;;;;4.67;4.00;;;;;-147.17;100.00;-15917.19;4992603;28;52133;-59
2023/04/11 08:54:08;;;;;;;;;2.67;2.33;;;;;-147.17;100.00;-15917.19;4992943;28;51200;-59
2023/04/11 08:56:34;;;;;;;;;5.67;3.67;;;;;-147.17;100.00;-15915.72;4993014;28;51224;-58
2023/04/11 08:59:00;;;;;;;;;3.33;2.67;;;;;-147.17;100.00;-15915.72;4993052;28;51149;-60
2023/04/11 09:01:31;;;;;;;;;8.00;6.50;;;;;-147.17;100.00;-15915.72;4992798;28;50957;-60
2023/04/11 09:03:58;;;;;;;;;4.00;3.00;;;;;-147.17;100.00;-15668.00;4992801;28;51152;-59
2023/04/11 09:06:23;;;;;;;;;1.67;1.00;;;;;-147.17;100.00;-15668.00;4991233;28;51158;-60
2023/04/11 09:08:49;;;;;;;;;3.33;2.33;;;;;-147.17;100.00;-14924.75;4994871;28;51046;-59
2023/04/11 09:11:16;;;;;;;;;5.00;3.00;;;;;-147.17;100.00;-15172.50;5012056;28;51211;-59
2023/04/11 09:13:41;;;;;;;;;2.33;1.00;;;;;-147.17;100.00;-15172.50;5012320;28;51156;-59
2023/04/11 09:16:09;;;;;;;;;3.00;2.33;;;;;-147.17;100.00;-14429.16;5012429;28;51173;-60
2023/04/11 09:18:42;;;;;;;;;2.00;2.00;;;;;-147.17;100.00;-13933.50;5012447;28;51190;-59
2023/04/11 09:21:13;;;;;;;;;3.00;3.00;;;;;-147.17;100.00;-12198.19;5012035;28;51854;-59
2023/04/11 09:23:39;;;;;;;;;3.00;3.00;;;;;-147.17;100.00;-11702.25;5011388;28;51131;-60
2023/04/11 09:26:06;;;;;;;;;1.00;1.00;;;;;-147.17;100.00;-10710.16;5011372;28;51328;-59
2023/04/11 09:28:52;;;;;;;;;4.00;2.00;;;;;-147.17;100.00;-10462.09;5010817;28;50981;-59
2023/04/11 09:31:18;;;;;;;;;4.33;3.00;;;;;-147.17;100.00;-10214.00;5011197;28;52179;-59
2023/04/11 09:33:58;;;;;;;;;5.00;4.00;;;;;-147.17;100.00;-10462.09;5004955;28;50992;-59
2023/04/11 09:36:26;;;;;;;;;4.00;3.00;;;;;-147.17;100.00;-6987.56;4991626;28;50980;-58
2023/04/11 09:38:52;;;;;;;;;5.00;3.00;;;;;-147.17;100.00;-5497.50;4991891;28;51179;-58
2023/04/11 09:41:32;;;;;;;;;3.00;3.00;;;;;-147.17;100.00;-5745.88;4991534;28;51833;-58
2023/04/11 09:43:58;;;;;;;;;2.33;2.33;;;;;-147.17;100.00;-6739.25;4992226;28;51082;-60
2023/04/11 09:46:24;;;;;;;;;3.00;2.67;;;;;-147.17;100.00;-4006.88;4991884;28;51102;-60
2023/04/11 09:48:51;;;;;;;;;2.00;2.00;;;;;-147.17;100.00;-5000.69;4991880;28;51150;-62
2023/04/11 09:51:18;;;;;;;;;3.67;3.00;;;;;-147.17;100.00;-5000.69;4991420;28;51146;-59
2023/04/11 09:53:44;;;;;;;;;7.67;7.00;;;;;-147.17;100.00;-4503.81;4991590;28;50912;-59
2023/04/11 09:56:10;;;;;;;;;4.00;4.00;;;;;-147.17;100.00;-2267.06;4995139;28;51052;-59
2023/04/11 09:58:38;;;;;;;;;3.00;3.00;;;;;-147.17;100.00;-277.75;4993893;28;51399;-60
2023/04/11 10:01:06;;;;;;;;;3.00;2.33;;;;;-147.17;100.00;2708.13;4994696;28;51124;-60
2023/04/11 10:03:38;;;;;;;;;2.00;2.00;;;;;-147.17;100.00;3206.00;4994899;28;51001;-60
2023/04/11 10:06:08;;;;;;;;;2.33;2.00;;;;;-147.17;100.00;3206.00;4994800;28;51302;-60
2023/04/11 10:08:36;;;;;;;;;3.67;3.00;;;;;-147.17;100.00;1712.56;5007961;28;51294;-60
2023/04/11 10:11:08;;;;;;;;;1.00;1.00;;;;;-147.17;100.00;3206.00;5014668;28;52011;-59
2023/04/11 10:13:49;;;;;;;;;4.67;3.67;;;;;-147.17;100.00;1712.56;5015556;28;51058;-60
2023/04/11 10:16:19;;;;;;;;;1.33;1.33;;;;;-147.17;100.00;1214.91;5015008;28;51017;-60
2023/04/11 10:18:56;;;;;;;;;3.00;2.33;;;;;-147.17;100.00;2708.13;5014564;28;50898;-60
2023/04/11 10:21:34;;;;;;;;;7.67;6.67;;;;;-147.17;100.00;3206.00;5014563;28;51947;-60
2023/04/11 10:24:17;;;;;;;;;4.00;4.00;;;;;-147.17;100.00;3703.94;5002519;28;51068;-60
2023/04/11 10:26:54;;;;;;;;;5.00;4.33;;;;;-147.17;100.00;3206.00;4994759;28;51093;-60
2023/04/11 10:32:18;;;;;;;;;10.00;8.25;;;;;-147.17;100.00;4949.06;4994233;28;51890;-60
2023/04/11 10:34:49;;;;;;;;;5.00;5.00;;;;;-147.17;100.00;3703.94;4994409;28;50889;-60
2023/04/11 10:37:16;;;;;;;;;3.33;3.00;;;;;-147.17;100.00;1463.72;4994669;28;51034;-59
2023/04/11 10:39:54;;;;;;;;;7.75;6.25;;;;;-147.17;100.00;-1272.53;4994873;28;51311;-60
2023/04/11 10:42:26;;;;;;;;;3.00;3.00;;;;;-147.17;100.00;1214.91;4994425;28;52231;-60
2023/04/11 10:45:17;;;;;;;;;5.00;5.00;;;;;-147.17;100.00;1961.44;4994158;28;51199;-62
2023/04/11 10:47:58;;;;;;;;;4.00;2.00;;;;;-147.17;100.00;1961.44;4994752;28;51251;-60
2023/04/11 10:50:30;;;;;;;;;3.67;3.67;;;;;-147.17;100.00;-277.75;4995140;28;51241;-61
2023/04/11 10:52:57;;;;;;;;;3.33;3.33;;;;;-147.17;100.00;-277.75;4994439;28;51871;-60
2023/04/11 10:55:25;;;;;;;;;3.00;2.00;;;;;-147.17;100.00;1712.56;4996166;28;51164;-60
2023/04/11 10:58:15;;;;;;;;;3.00;2.00;;;;;-147.17;100.00;3206.00;4995067;28;50989;-59
2023/04/11 11:00:48;;;;;;;;;4.00;3.67;;;;;-147.17;100.00;6443.75;4994606;28;51039;-60
2023/04/11 11:03:18;;;;;;;;;4.00;2.67;;;;;-147.17;100.00;7689.75;4993665;28;51419;-59